This is the latest recevied weather packets stored in our database for station/object OK1ALX-6. If no packets are shown the sender has not sent any weather packets the latest 1 day(s).
| Time | Temp. | Humidity | Pressure | Rain* | Wind** | Luminosity | Snow |
|---|---|---|---|---|---|---|---|
| 1836274377 | 15.56° C | 77% | 1027.7 hPa | 0 mm | 0.45 m/s, 187° | 0 W/m² | - |
| 1836274227 | 16.11° C | 76% | 1027.4 hPa | 0 mm | 0.89 m/s, 182° | 0 W/m² | - |
| 1778032203 | 13.33° C | 91% | 1012 hPa | 0 mm | 0 m/s | 0 W/m² | - |
| 1778031603 | 13.33° C | 91% | 1011.7 hPa | 0 mm | 0 m/s | 0 W/m² | - |
| 1778031003 | 13.33° C | 91% | 1011.5 hPa | 0 mm | 0.45 m/s, 77° | 0 W/m² | - |
| 1778030403 | 13.33° C | 91% | 1011.7 hPa | 0 mm | 0 m/s | 0 W/m² | - |
| 1778029803 | 13.33° C | 90% | 1011.6 hPa | 0 mm | 0.45 m/s, 27° | 0 W/m² | - |
| 1778029203 | 13.33° C | 90% | 1011.8 hPa | 0 mm | 0 m/s | 0 W/m² | - |
| 1778028603 | 13.33° C | 90% | 1011.4 hPa | 0 mm | 0 m/s | 0 W/m² | - |
| 1778028003 | 13.33° C | 90% | 1011.8 hPa | 0 mm | 0.45 m/s, 340° | 0 W/m² | - |
| 1778027403 | 13.89° C | 89% | 1011.7 hPa | 0 mm | 0.89 m/s, 333° | 0 W/m² | - |
| 1778026803 | 13.89° C | 89% | 1011.4 hPa | 0 mm | 0.45 m/s, 338° | 0 W/m² | - |
| 1778026203 | 14.44° C | 89% | 1011.6 hPa | 0 mm | 1.34 m/s, 316° | 0 W/m² | - |
| 1778025603 | 14.44° C | 88% | 1011.6 hPa | 0 mm | 2.24 m/s, 311° | 0 W/m² | - |
| 1778025003 | 14.44° C | 87% | 1011.4 hPa | 0 mm | 1.79 m/s, 331° | 0 W/m² | - |
| 1778024403 | 14.44° C | 86% | 1011.4 hPa | 0 mm | 1.34 m/s, 326° | 0 W/m² | - |
| 1778023803 | 15° C | 85% | 1011.2 hPa | 0 mm | 1.79 m/s, 315° | 0 W/m² | - |
| 1778023203 | 15° C | 84% | 1011 hPa | 0 mm | 3.13 m/s, 310° | 0 W/m² | - |
| 1778022603 | 15.56° C | 83% | 1011.7 hPa | 0 mm | 4.02 m/s, 313° | 0 W/m² | - |
| 1778022003 | 15.56° C | 81% | 1011.6 hPa | 0 mm | 3.58 m/s, 299° | 0 W/m² | - |
| 1778021403 | 16.11° C | 79% | 1011.1 hPa | 0 mm | 2.68 m/s, 289° | 0 W/m² | - |
| 1778020803 | 16.67° C | 76% | 1011 hPa | 0 mm | 3.13 m/s, 289° | 0 W/m² | - |
| 1778020203 | 17.22° C | 62% | 1010.3 hPa | 0 mm | 0.45 m/s, 184° | 0 W/m² | - |
| 1778019603 | 17.78° C | 61% | 1010.1 hPa | 0 mm | 0.89 m/s, 187° | 0 W/m² | - |
| 1778019004 | 17.78° C | 61% | 1010.1 hPa | 0 mm | 0.89 m/s, 233° | 0 W/m² | - |
* Rain latest hour (hover to see other rain measurements)
** Current wind speed in m/s (hover to see current wind gust speed)